createdAt,value
2023-01-05T00:00:34.906Z,101408.75
2023-01-05T00:01:37.276Z,101415.63
2023-01-05T00:02:39.571Z,101414.72
2023-01-05T00:03:41.455Z,101412.88
2023-01-05T00:04:43.280Z,101405.94
2023-01-05T00:05:45.135Z,101397.69
2023-01-05T00:06:47.119Z,101396.63
2023-01-05T00:07:48.958Z,101404.16
2023-01-05T00:08:50.951Z,101408.63
2023-01-05T00:09:52.719Z,101387.38
2023-01-05T00:11:13.283Z,101405.13
2023-01-05T00:12:33.462Z,101397.22
2023-01-05T00:13:53.632Z,101405.53
2023-01-05T00:15:13.927Z,101408.94
2023-01-05T00:16:34.323Z,101394.78
2023-01-05T00:17:54.832Z,101412.56
2023-01-05T00:19:15.475Z,101412.56
2023-01-05T00:20:39.120Z,101413.53
2023-01-05T00:21:59.393Z,101409.91
2023-01-05T00:23:01.711Z,101417.88
2023-01-05T00:24:03.680Z,101420.03
2023-01-05T00:25:12.630Z,101420.34
2023-01-05T00:26:14.762Z,101412.47
2023-01-05T00:27:16.657Z,101420.34
2023-01-05T00:28:18.520Z,101423.09
2023-01-05T00:29:20.421Z,101409.81
2023-01-05T00:30:32.036Z,101410.03
2023-01-05T00:31:33.857Z,101407.59
2023-01-05T00:32:35.697Z,101415.25
2023-01-05T00:33:37.477Z,101412.69
2023-01-05T00:34:42.002Z,101410.97
2023-01-05T00:35:44.106Z,101413.56
2023-01-05T00:36:46.004Z,101413.56
2023-01-05T00:37:47.891Z,101411.84
2023-01-05T00:38:50.312Z,101410.88
2023-01-05T00:39:52.597Z,101412.69
2023-01-05T00:40:55.766Z,101412.69
2023-01-05T00:41:57.565Z,101407.50
2023-01-05T00:42:59.812Z,101400.03
2023-01-05T00:44:01.574Z,101416.31
2023-01-05T00:45:05.866Z,101408.44
2023-01-05T00:46:07.971Z,101403.44
2023-01-05T00:47:09.843Z,101406.84
2023-01-05T00:48:11.616Z,101418.13
2023-01-05T00:49:13.555Z,101413.66
2023-01-05T00:50:17.306Z,101418.13
2023-01-05T00:51:19.060Z,101417.28
2023-01-05T00:52:21.192Z,101417.28
2023-01-05T00:53:23.783Z,101412.06
2023-01-05T00:54:25.724Z,101416.31
2023-01-05T00:55:27.516Z,101413.78
2023-01-05T00:56:29.430Z,101421.75
2023-01-05T00:57:31.962Z,101425.38
2023-01-05T00:58:33.854Z,101418.22
2023-01-05T00:59:35.641Z,101415.56
2023-01-05T01:00:43.971Z,101410.69
2023-01-05T01:01:51.181Z,101417.28
2023-01-05T01:02:54.395Z,101414.59
2023-01-05T01:03:57.518Z,101418.13
2023-01-05T01:04:59.382Z,101427.19
2023-01-05T01:06:01.177Z,101412.16
2023-01-05T01:07:03.890Z,101408.25
2023-01-05T01:08:05.755Z,101419.19
2023-01-05T01:09:07.996Z,101417.50
2023-01-05T01:10:11.229Z,101422.81
2023-01-05T01:11:13.204Z,101410.91
2023-01-05T01:12:15.554Z,101418.38
2023-01-05T01:13:17.448Z,101409.22
2023-01-05T01:14:19.800Z,101415.78
2023-01-05T01:15:24.096Z,101419.19
2023-01-05T01:16:26.013Z,101427.31
2023-01-05T01:17:27.941Z,101427.31
2023-01-05T01:18:31.210Z,101426.66
2023-01-05T01:19:33.625Z,101423.78
2023-01-05T01:20:37.969Z,101427.41
2023-01-05T01:21:39.741Z,101429.09
2023-01-05T01:22:41.929Z,101429.09
2023-01-05T01:23:43.995Z,101432.72
2023-01-05T01:24:46.027Z,101430.06
2023-01-05T01:25:47.956Z,101438.91
2023-01-05T01:26:50.415Z,101431.03
2023-01-05T01:27:52.353Z,101437.31
2023-01-05T01:28:54.154Z,101426.66
2023-01-05T01:29:56.113Z,101436.34
2023-01-05T01:30:58.568Z,101444.34
2023-01-05T01:32:00.628Z,101432.22
2023-01-05T01:33:02.438Z,101439.00
2023-01-05T01:34:04.496Z,101441.81
2023-01-05T01:35:06.556Z,101438.28
2023-01-05T01:36:09.654Z,101445.44
2023-01-05T01:37:12.044Z,101440.94
2023-01-05T01:38:19.125Z,101435.94
2023-01-05T01:39:21.083Z,101446.16
2023-01-05T01:40:28.178Z,101446.25
2023-01-05T01:41:30.016Z,101454.16
2023-01-05T01:42:32.790Z,101445.44
2023-01-05T01:43:49.503Z,101452.31
2023-01-05T01:44:56.492Z,101455.84
2023-01-05T01:46:01.087Z,101458.50
2023-01-05T01:47:02.944Z,101460.31
2023-01-05T01:48:05.369Z,101457.78
2023-01-05T01:49:11.294Z,101449.22
2023-01-05T01:50:25.133Z,101451.59
2023-01-05T01:51:30.071Z,101451.50
2023-01-05T01:52:34.399Z,101454.16
2023-01-05T01:53:40.427Z,101454.25
2023-01-05T01:54:42.756Z,101454.16
2023-01-05T01:55:45.071Z,101413.75
2023-01-05T01:56:56.396Z,101458.81
2023-01-05T01:58:00.232Z,101436.28
2023-01-05T01:59:02.469Z,101479.91
2023-01-05T02:00:09.223Z,101469.38
2023-01-05T02:01:20.283Z,101475.31
2023-01-05T02:02:23.779Z,101468.41
2023-01-05T02:03:30.559Z,101472.88
2023-01-05T02:04:33.715Z,101474.56
2023-01-05T02:05:38.140Z,101478.19
2023-01-05T02:06:40.056Z,101472.03
2023-01-05T02:07:46.020Z,101470.44
2023-01-05T02:08:48.720Z,101465.84
2023-01-05T02:09:50.688Z,101472.03
2023-01-05T02:11:11.288Z,101467.47
2023-01-05T02:12:39.273Z,101464.78
2023-01-05T02:13:50.352Z,101474.25
2023-01-05T02:15:10.571Z,101476.06
2023-01-05T02:16:23.431Z,101468.81
2023-01-05T02:17:52.038Z,101462.66
2023-01-05T02:19:32.213Z,101465.94
2023-01-05T02:20:49.372Z,101470.28
2023-01-05T02:22:07.520Z,101463.72
2023-01-05T02:23:39.559Z,101477.75
2023-01-05T02:24:51.252Z,101479.47
2023-01-05T02:26:02.961Z,101478.84
2023-01-05T02:27:40.684Z,101479.69
2023-01-05T02:29:27.247Z,101484.69
2023-01-05T02:31:09.422Z,101491.59
2023-01-05T02:32:27.628Z,101499.69
2023-01-05T02:34:13.306Z,101492.69
2023-01-05T02:35:42.143Z,101484.69
2023-01-05T02:36:54.053Z,101488.41
2023-01-05T02:38:23.087Z,101488.63
2023-01-05T02:39:43.124Z,101486.72
2023-01-05T02:40:58.196Z,101499.41
2023-01-05T02:42:10.443Z,101496.09
2023-01-05T02:43:16.067Z,101494.38
2023-01-05T02:44:20.151Z,101496.31
2023-01-05T02:45:26.132Z,101493.00
2023-01-05T02:46:32.648Z,101504.50
2023-01-05T02:47:45.252Z,101493.13
2023-01-05T02:48:51.556Z,101500.16
2023-01-05T02:50:19.293Z,101513.97
2023-01-05T02:51:26.289Z,101506.94
2023-01-05T02:52:36.741Z,101502.69
2023-01-05T02:53:46.331Z,101505.34
2023-01-05T02:54:57.961Z,101507.16
2023-01-05T02:56:07.370Z,101506.31
2023-01-05T02:57:20.224Z,101493.22
2023-01-05T02:58:24.826Z,101502.69
2023-01-05T02:59:33.402Z,101508.13
2023-01-05T03:00:45.919Z,101513.44
2023-01-05T03:02:06.923Z,101505.25
2023-01-05T03:03:48.271Z,101506.72
2023-01-05T03:05:04.312Z,101519.09
2023-01-05T03:06:23.007Z,101515.47
2023-01-05T03:07:29.091Z,101517.47
2023-01-05T03:08:33.583Z,101515.03
2023-01-05T03:09:42.368Z,101503.97
2023-01-05T03:11:18.571Z,101511.53
2023-01-05T03:12:54.742Z,101513.75
2023-01-05T03:14:17.047Z,101520.69
2023-01-05T03:15:30.127Z,101512.28
2023-01-05T03:16:35.953Z,101519.31
2023-01-05T03:17:46.720Z,101519.59
2023-01-05T03:19:12.473Z,101516.13
2023-01-05T03:20:17.224Z,101521.09
2023-01-05T03:21:19.073Z,101516.94
2023-01-05T03:22:48.431Z,101518.03
2023-01-05T03:24:09.567Z,101521.97
2023-01-05T03:25:34.267Z,101518.44
2023-01-05T03:26:57.804Z,101524.53
2023-01-05T03:28:21.306Z,101528.13
2023-01-05T03:29:42.620Z,101522.72
2023-01-05T03:31:21.691Z,101531.66
2023-01-05T03:32:45.746Z,101521.88
2023-01-05T03:34:25.476Z,101528.03
2023-01-05T03:35:34.932Z,101520.56
2023-01-05T03:36:47.236Z,101530.78
2023-01-05T03:38:04.183Z,101529.28
2023-01-05T03:39:08.662Z,101489.06
2023-01-05T03:40:22.679Z,101537.41
2023-01-05T03:41:27.995Z,101532.91
2023-01-05T03:42:32.539Z,101545.38
2023-01-05T03:43:37.607Z,101542.94
2023-01-05T03:44:45.306Z,101526.75
2023-01-05T03:45:55.435Z,101551.88
2023-01-05T03:47:00.609Z,101542.94
2023-01-05T03:48:02.384Z,101553.59
2023-01-05T03:49:04.315Z,101551.03
2023-01-05T03:50:07.603Z,101544.13
2023-01-05T03:51:09.556Z,101549.31
2023-01-05T03:52:13.523Z,101550.19
2023-01-05T03:53:17.182Z,101545.28
2023-01-05T03:54:20.508Z,101544.00
2023-01-05T03:55:23.184Z,101548.47
2023-01-05T03:56:27.520Z,101554.63
2023-01-05T03:57:31.906Z,101560.81
2023-01-05T03:58:34.225Z,101551.03
2023-01-05T03:59:36.078Z,101557.31
2023-01-05T04:00:38.841Z,101547.09
2023-01-05T04:01:44.075Z,101562.53
2023-01-05T04:02:48.963Z,101558.03
2023-01-05T04:03:54.970Z,101558.03
2023-01-05T04:04:56.965Z,101554.03
2023-01-05T04:05:58.827Z,101556.47
2023-01-05T04:07:03.131Z,101567.00
2023-01-05T04:08:08.124Z,101572.22
2023-01-05T04:09:11.258Z,101567.00
2023-01-05T04:10:15.536Z,101567.72
2023-01-05T04:11:21.695Z,101565.19
2023-01-05T04:12:29.355Z,101572.97
2023-01-05T04:13:31.372Z,101566.78
2023-01-05T04:14:33.205Z,101568.59
2023-01-05T04:15:35.375Z,101569.56
2023-01-05T04:16:40.021Z,101568.69
2023-01-05T04:17:48.526Z,101563.16
2023-01-05T04:18:50.352Z,101572.97
2023-01-05T04:19:54.504Z,101562.31
2023-01-05T04:20:57.872Z,101562.31
2023-01-05T04:22:00.247Z,101568.47
2023-01-05T04:23:04.297Z,101570.31
2023-01-05T04:24:12.357Z,101565.94
2023-01-05T04:25:17.150Z,101563.91
2023-01-05T04:26:19.334Z,101568.47
2023-01-05T04:27:24.071Z,101574.66
2023-01-05T04:28:26.357Z,101574.66
2023-01-05T04:29:31.046Z,101569.34
2023-01-05T04:30:34.724Z,101568.47
2023-01-05T04:31:38.528Z,101574.66
2023-01-05T04:32:41.845Z,101569.34
2023-01-05T04:33:48.013Z,101574.66
2023-01-05T04:34:53.227Z,101571.25
2023-01-05T04:35:56.239Z,101570.31
2023-01-05T04:37:01.463Z,101580.00
2023-01-05T04:38:05.116Z,101580.00
2023-01-05T04:39:07.983Z,101583.59
2023-01-05T04:40:12.741Z,101585.31
2023-01-05T04:41:22.784Z,101591.38
2023-01-05T04:42:27.020Z,101591.47
2023-01-05T04:43:30.755Z,101595.00
2023-01-05T04:44:35.122Z,101590.84
2023-01-05T04:45:39.334Z,101598.50
2023-01-05T04:46:42.692Z,101593.16
2023-01-05T04:47:46.144Z,101601.28
2023-01-05T04:48:52.085Z,101599.44
2023-01-05T04:49:56.023Z,101576.34
2023-01-05T04:50:58.134Z,101599.56
2023-01-05T04:52:10.112Z,101599.38
2023-01-05T04:53:12.930Z,101609.06
2023-01-05T04:54:17.508Z,101605.53
2023-01-05T04:55:19.732Z,101613.50
2023-01-05T04:56:22.037Z,101615.34
2023-01-05T04:57:24.527Z,101614.47
2023-01-05T04:58:27.442Z,101616.28
2023-01-05T04:59:32.555Z,101616.16
2023-01-05T05:00:37.513Z,101617.03
2023-01-05T05:01:41.409Z,101611.72
2023-01-05T05:02:47.035Z,101610.22
2023-01-05T05:03:50.186Z,101616.16
2023-01-05T05:04:54.508Z,101614.47
2023-01-05T05:05:56.990Z,101615.53
2023-01-05T05:07:01.213Z,101619.69
2023-01-05T05:08:06.113Z,101622.44
2023-01-05T05:09:10.179Z,101618.84
2023-01-05T05:10:18.055Z,101628.53
2023-01-05T05:11:21.471Z,101611.06
2023-01-05T05:12:24.462Z,101624.06
2023-01-05T05:13:27.834Z,101624.16
2023-01-05T05:14:29.902Z,101623.31
2023-01-05T05:15:34.164Z,101628.63
2023-01-05T05:16:37.787Z,101625.13
2023-01-05T05:17:41.265Z,101633.22
2023-01-05T05:18:47.219Z,101586.97
2023-01-05T05:19:53.678Z,101627.69
2023-01-05T05:20:56.944Z,101639.16
2023-01-05T05:22:03.959Z,101633.00
2023-01-05T05:23:05.826Z,101639.28
2023-01-05T05:24:09.082Z,101640.47
2023-01-05T05:25:14.332Z,101646.31
2023-01-05T05:26:19.142Z,101644.28
2023-01-05T05:27:22.611Z,101644.63
2023-01-05T05:28:28.278Z,101640.34
2023-01-05T05:29:30.240Z,101636.63
2023-01-05T05:30:32.039Z,101642.38
2023-01-05T05:31:33.969Z,101644.81
2023-01-05T05:32:40.820Z,101644.91
2023-01-05T05:33:45.797Z,101638.84
2023-01-05T05:34:47.579Z,101655.34
2023-01-05T05:35:49.381Z,101652.81
2023-01-05T05:36:51.167Z,101648.44
2023-01-05T05:37:56.384Z,101646.00
2023-01-05T05:38:58.883Z,101647.47
2023-01-05T05:40:00.697Z,101653.75
2023-01-05T05:41:02.487Z,101655.56
2023-01-05T05:42:04.667Z,101637.84
2023-01-05T05:43:06.502Z,101664.50
2023-01-05T05:44:08.696Z,101659.16
2023-01-05T05:45:10.911Z,101662.78
2023-01-05T05:46:12.777Z,101671.53
2023-01-05T05:47:14.668Z,101669.94
2023-01-05T05:48:16.537Z,101661.97
2023-01-05T05:49:18.464Z,101653.53
2023-01-05T05:50:20.234Z,101670.69
2023-01-05T05:51:23.843Z,101663.66
2023-01-05T05:52:25.639Z,101667.16
2023-01-05T05:53:27.464Z,101668.97
2023-01-05T05:54:29.381Z,101662.59
2023-01-05T05:55:31.147Z,101679.63
2023-01-05T05:56:32.977Z,101679.63
2023-01-05T05:57:35.037Z,101663.22
2023-01-05T05:58:36.927Z,101674.31
2023-01-05T05:59:38.807Z,101677.91
2023-01-05T06:00:41.216Z,101679.63
2023-01-05T06:01:43.062Z,101684.09
2023-01-05T06:02:45.105Z,101679.63
2023-01-05T06:03:47.043Z,101677.91
2023-01-05T06:04:49.026Z,101692.06
2023-01-05T06:05:50.918Z,101694.72
2023-01-05T06:06:52.752Z,101680.25
2023-01-05T06:07:54.564Z,101695.47
2023-01-05T06:08:56.479Z,101693.03
2023-01-05T06:09:58.264Z,101699.00
2023-01-05T06:11:00.482Z,101696.22
2023-01-05T06:12:02.518Z,101702.22
2023-01-05T06:13:05.237Z,101703.91
2023-01-05T06:14:07.792Z,101691.78
2023-01-05T06:15:10.044Z,101707.22
2023-01-05T06:16:12.070Z,101688.34
2023-01-05T06:17:13.955Z,101672.91
2023-01-05T06:18:16.205Z,101709.34
2023-01-05T06:19:18.126Z,101717.13
2023-01-05T06:20:20.555Z,101707.44
2023-01-05T06:21:23.392Z,101715.75
2023-01-05T06:22:25.185Z,101717.38
2023-01-05T06:23:26.966Z,101717.16
2023-01-05T06:24:28.749Z,101717.81
2023-01-05T06:25:30.555Z,101724.66
2023-01-05T06:26:32.328Z,101726.34
2023-01-05T06:27:34.317Z,101733.91
2023-01-05T06:28:36.101Z,101722.19
2023-01-05T06:29:37.885Z,101704.84
2023-01-05T06:30:39.658Z,101727.94
2023-01-05T06:31:41.431Z,101727.66
2023-01-05T06:32:43.252Z,101733.59
2023-01-05T06:33:45.080Z,101729.88
2023-01-05T06:34:46.969Z,101723.91
2023-01-05T06:35:48.754Z,101743.56
2023-01-05T06:36:50.679Z,101739.84
2023-01-05T06:37:52.520Z,101737.78
2023-01-05T06:38:54.308Z,101745.56
2023-01-05T06:39:56.490Z,101743.56
2023-01-05T06:40:59.513Z,101749.50
2023-01-05T06:42:01.371Z,101750.25
2023-01-05T06:43:03.157Z,101747.41
2023-01-05T06:44:05.757Z,101757.72
2023-01-05T06:45:09.886Z,101758.47
2023-01-05T06:46:11.806Z,101751.97
2023-01-05T06:47:14.322Z,101754.41
2023-01-05T06:48:16.079Z,101750.69
2023-01-05T06:49:18.468Z,101740.69
2023-01-05T06:50:20.288Z,101754.00
2023-01-05T06:51:22.085Z,101754.75
2023-01-05T06:52:24.209Z,101758.16
2023-01-05T06:53:25.998Z,101763.25
2023-01-05T06:54:27.959Z,101765.81
2023-01-05T06:55:29.817Z,101767.41
2023-01-05T06:56:31.587Z,101754.31
2023-01-05T06:57:33.604Z,101770.81
2023-01-05T06:58:35.407Z,101769.88
2023-01-05T06:59:37.412Z,101767.81
2023-01-05T07:00:39.282Z,101767.72
2023-01-05T07:01:41.190Z,101770.38
2023-01-05T07:02:43.070Z,101773.78
2023-01-05T07:03:44.867Z,101778.16
2023-01-05T07:04:46.702Z,101774.75
2023-01-05T07:05:48.459Z,101784.25
2023-01-05T07:06:50.260Z,101782.44
2023-01-05T07:07:52.114Z,101784.16
2023-01-05T07:08:53.870Z,101773.78
2023-01-05T07:09:55.669Z,101793.72
2023-01-05T07:10:57.470Z,101795.44
2023-01-05T07:11:59.290Z,101766.09
2023-01-05T07:13:01.057Z,101784.97
2023-01-05T07:14:02.889Z,101802.47
2023-01-05T07:15:06.222Z,101814.84
2023-01-05T07:16:08.221Z,101814.84
2023-01-05T07:17:12.573Z,101809.50
2023-01-05T07:18:14.394Z,101806.09
2023-01-05T07:19:17.398Z,101813.88
2023-01-05T07:20:19.189Z,101805.88
2023-01-05T07:21:21.064Z,101810.47
2023-01-05T07:22:23.011Z,101818.25
2023-01-05T07:23:24.858Z,101814.63
2023-01-05T07:24:26.949Z,101805.88
2023-01-05T07:25:31.620Z,101795.56
2023-01-05T07:26:33.533Z,101806.09
2023-01-05T07:27:35.308Z,101807.59
2023-01-05T07:28:38.317Z,101804.91
2023-01-05T07:29:40.173Z,101810.16
2023-01-05T07:30:41.958Z,101807.50
2023-01-05T07:31:43.911Z,101796.06
2023-01-05T07:32:45.755Z,101816.34
2023-01-05T07:33:47.549Z,101794.81
2023-01-05T07:34:55.337Z,101805.66
2023-01-05T07:36:01.189Z,101777.00
2023-01-05T07:37:03.003Z,101813.56
2023-01-05T07:38:04.856Z,101816.25
2023-01-05T07:39:06.663Z,101818.03
2023-01-05T07:40:09.132Z,101821.66
2023-01-05T07:41:10.984Z,101827.00
2023-01-05T07:42:13.289Z,101828.94
2023-01-05T07:43:16.540Z,101829.78
2023-01-05T07:44:18.487Z,101816.78
2023-01-05T07:45:21.011Z,101831.72
2023-01-05T07:46:22.909Z,101836.09
2023-01-05T07:47:24.758Z,101831.81
2023-01-05T07:48:26.548Z,101832.56
2023-01-05T07:49:29.478Z,101838.75
2023-01-05T07:50:32.197Z,101859.25
2023-01-05T07:51:33.962Z,101848.56
2023-01-05T07:52:35.831Z,101857.44
2023-01-05T07:53:44.208Z,101855.59
2023-01-05T07:54:46.585Z,101850.28
2023-01-05T07:55:59.248Z,101850.28
2023-01-05T07:57:01.115Z,101840.78
2023-01-05T07:58:02.862Z,101837.38
2023-01-05T07:59:04.657Z,101852.09
2023-01-05T08:00:07.332Z,101858.41
2023-01-05T08:01:15.266Z,101864.56
2023-01-05T08:02:17.522Z,101864.56
2023-01-05T08:03:19.624Z,101861.91
2023-01-05T08:04:21.468Z,101880.59
2023-01-05T08:05:23.403Z,101865.53
2023-01-05T08:06:25.296Z,101882.50
2023-01-05T08:07:27.171Z,101874.50
2023-01-05T08:08:29.385Z,101882.50
2023-01-05T08:09:49.646Z,101891.59
2023-01-05T08:10:51.434Z,101880.50
2023-01-05T08:11:53.249Z,101879.75
2023-01-05T08:13:13.828Z,101885.16
2023-01-05T08:14:15.624Z,101882.28
2023-01-05T08:15:17.390Z,101876.44
2023-01-05T08:16:20.003Z,101886.88
2023-01-05T08:17:21.883Z,101891.47
2023-01-05T08:18:24.121Z,101883.47
2023-01-05T08:19:26.021Z,101890.63
2023-01-05T08:20:27.914Z,101891.47
2023-01-05T08:21:29.693Z,101893.31
2023-01-05T08:22:31.453Z,101879.31
2023-01-05T08:23:33.528Z,101895.09
2023-01-05T08:24:35.347Z,101895.09
2023-01-05T08:25:37.193Z,101893.41
2023-01-05T08:26:39.179Z,101885.06
2023-01-05T08:27:41.047Z,101896.28
2023-01-05T08:28:44.046Z,101899.59
2023-01-05T08:29:45.784Z,101908.44
2023-01-05T08:30:47.793Z,101897.22
2023-01-05T08:31:49.669Z,101896.19
2023-01-05T08:32:51.784Z,101905.78
2023-01-05T08:34:02.349Z,101894.34
2023-01-05T08:35:04.491Z,101886.78
2023-01-05T08:36:11.652Z,101895.09
2023-01-05T08:37:13.515Z,101903.84
2023-01-05T08:38:15.275Z,101908.34
2023-01-05T08:39:17.038Z,101890.28
2023-01-05T08:40:18.927Z,101912.81
2023-01-05T08:41:23.705Z,101905.78
2023-01-05T08:42:25.583Z,101909.19
2023-01-05T08:43:27.590Z,101896.50
2023-01-05T08:44:29.505Z,101911.97
2023-01-05T08:45:32.485Z,101905.97
2023-01-05T08:46:36.354Z,101915.59
2023-01-05T08:47:38.132Z,101921.78
2023-01-05T08:48:39.947Z,101922.75
2023-01-05T08:49:41.795Z,101920.06
2023-01-05T08:50:43.647Z,101921.16
2023-01-05T08:51:45.540Z,101929.91
2023-01-05T08:52:47.361Z,101936.94
2023-01-05T08:53:49.626Z,101929.25
2023-01-05T08:54:51.513Z,101941.41
2023-01-05T08:55:53.403Z,101937.78
2023-01-05T08:56:55.469Z,101925.09
2023-01-05T08:57:57.347Z,101943.13
2023-01-05T08:58:59.273Z,101946.66
2023-01-05T09:00:01.066Z,101947.50
2023-01-05T09:01:07.156Z,101947.81
2023-01-05T09:02:12.597Z,101952.00
2023-01-05T09:03:14.593Z,101947.41
2023-01-05T09:04:16.412Z,101951.88
2023-01-05T09:05:18.268Z,101961.69
2023-01-05T09:06:20.426Z,101960.81
2023-01-05T09:07:22.504Z,101959.03
2023-01-05T09:08:24.279Z,101959.13
2023-01-05T09:09:26.086Z,101964.38
2023-01-05T09:10:27.906Z,101966.16
2023-01-05T09:11:29.851Z,101971.50
2023-01-05T09:12:33.447Z,101964.47
2023-01-05T09:13:36.044Z,101964.47
2023-01-05T09:14:38.517Z,101954.31
2023-01-05T09:15:40.294Z,101977.78
2023-01-05T09:17:05.914Z,101970.75
2023-01-05T09:18:03.955Z,101970.44
2023-01-05T09:19:06.788Z,101970.53
2023-01-05T09:20:09.278Z,101976.00
2023-01-05T09:21:11.944Z,101971.63
2023-01-05T09:22:13.730Z,101976.09
2023-01-05T09:23:15.560Z,101975.25
2023-01-05T09:24:17.559Z,101964.88
2023-01-05T09:25:19.445Z,101975.34
2023-01-05T09:26:21.299Z,101980.69
2023-01-05T09:27:23.079Z,101958.47
2023-01-05T09:28:24.959Z,101986.88
2023-01-05T09:29:26.749Z,101982.59
2023-01-05T09:30:28.621Z,101983.25
2023-01-05T09:31:30.751Z,101984.09
2023-01-05T09:32:32.602Z,101975.56
2023-01-05T09:33:34.405Z,101978.66
2023-01-05T09:34:36.390Z,101982.38
2023-01-05T09:35:38.174Z,101980.69
2023-01-05T09:36:40.201Z,101990.38
2023-01-05T09:37:42.132Z,101984.09
2023-01-05T09:38:49.891Z,101986.00
2023-01-05T09:39:51.676Z,101983.13
2023-01-05T09:40:57.170Z,101972.44
2023-01-05T09:42:05.987Z,101980.59
2023-01-05T09:43:22.905Z,101984.97
2023-01-05T09:44:32.472Z,101990.94
2023-01-05T09:45:34.365Z,101986.75
2023-01-05T09:46:42.950Z,101978.97
2023-01-05T09:47:46.788Z,101993.59
2023-01-05T09:48:53.274Z,101982.16
2023-01-05T09:49:58.296Z,101990.09
2023-01-05T09:51:00.097Z,101992.75
2023-01-05T09:52:09.394Z,101993.72
2023-01-05T09:53:13.473Z,101994.56
2023-01-05T09:54:17.741Z,101994.56
2023-01-05T09:55:22.078Z,101994.56
2023-01-05T09:57:08.140Z,102004.25
2023-01-05T09:58:02.291Z,101994.13
2023-01-05T09:59:41.399Z,101992.00
2023-01-05T10:00:51.781Z,101981.00
2023-01-05T10:01:58.503Z,101991.38
2023-01-05T10:03:29.270Z,102000.34
2023-01-05T10:04:34.795Z,101998.28
2023-01-05T10:05:41.249Z,101994.13
2023-01-05T10:06:47.083Z,101996.03
2023-01-05T10:07:58.744Z,101999.69
2023-01-05T10:09:02.345Z,101999.59
2023-01-05T10:10:15.637Z,102003.31
2023-01-05T10:11:41.656Z,102002.34
2023-01-05T10:13:06.985Z,102003.09
2023-01-05T10:14:22.775Z,102008.00
2023-01-05T10:15:24.863Z,102011.63
2023-01-05T10:16:29.820Z,102014.63
2023-01-05T10:17:43.656Z,102019.22
2023-01-05T10:18:46.074Z,102018.13
2023-01-05T10:19:49.007Z,102024.44
2023-01-05T10:20:59.236Z,102036.06
2023-01-05T10:22:06.906Z,102017.41
2023-01-05T10:23:35.543Z,102025.94
2023-01-05T10:24:50.563Z,102033.84
2023-01-05T10:26:04.448Z,102024.97
2023-01-05T10:27:24.731Z,102028.72
2023-01-05T10:28:42.272Z,102029.34
2023-01-05T10:29:49.701Z,102027.63
2023-01-05T10:30:59.035Z,102034.06
2023-01-05T10:32:17.382Z,102037.56
2023-01-05T10:33:40.289Z,102038.31
2023-01-05T10:34:57.332Z,102038.22
2023-01-05T10:37:06.087Z,102033.63
2023-01-05T10:38:11.266Z,102034.19
2023-01-05T10:39:29.414Z,102042.19
2023-01-05T10:40:54.196Z,102046.47
2023-01-05T10:42:08.209Z,102039.63
2023-01-05T10:43:16.412Z,102048.59
2023-01-05T10:44:56.464Z,102040.81
2023-01-05T10:46:30.631Z,102052.03
2023-01-05T10:47:21.688Z,102059.28
2023-01-05T10:48:30.874Z,102051.56
2023-01-05T10:49:32.828Z,102055.19
2023-01-05T10:50:40.439Z,102052.63
2023-01-05T10:51:43.689Z,102054.44
2023-01-05T10:52:46.617Z,102053.91
2023-01-05T10:53:49.082Z,102062.53
2023-01-05T10:55:01.350Z,102062.44
2023-01-05T10:56:15.888Z,102047.06
2023-01-05T10:57:35.803Z,102063.88
2023-01-05T10:58:41.638Z,102063.88
2023-01-05T11:00:07.180Z,102061.81
2023-01-05T11:01:28.034Z,102067.16
2023-01-05T11:02:38.049Z,102063.75
2023-01-05T11:04:24.328Z,102046.44
2023-01-05T11:05:11.555Z,102059.28
2023-01-05T11:06:27.015Z,102049.75
2023-01-05T11:07:28.861Z,102056.69
2023-01-05T11:08:32.007Z,102060.41
2023-01-05T11:09:40.570Z,102058.81
2023-01-05T11:10:53.043Z,102066.72
2023-01-05T11:11:57.420Z,102061.28
2023-01-05T11:13:17.790Z,102065.75
2023-01-05T11:14:21.639Z,102061.19
2023-01-05T11:15:24.195Z,102068.41
2023-01-05T11:16:30.023Z,102068.41
2023-01-05T11:17:32.932Z,102063.19
2023-01-05T11:18:52.406Z,102069.38
2023-01-05T11:19:56.027Z,102066.53
2023-01-05T11:21:11.794Z,102074.53
2023-01-05T11:22:44.397Z,102062.56
2023-01-05T11:23:52.655Z,102074.22
2023-01-05T11:24:54.502Z,102073.38
2023-01-05T11:26:17.767Z,102028.81
2023-01-05T11:27:19.534Z,102067.16
2023-01-05T11:28:21.354Z,102066.53
2023-01-05T11:29:23.148Z,102068.41
2023-01-05T11:30:25.608Z,102069.38
2023-01-05T11:31:37.445Z,102071.22
2023-01-05T11:32:41.488Z,102068.41
2023-01-05T11:33:44.927Z,102071.28
2023-01-05T11:34:49.508Z,102073.00
2023-01-05T11:35:51.556Z,102077.38
2023-01-05T11:37:02.557Z,102076.53
2023-01-05T11:38:22.702Z,102068.53
2023-01-05T11:39:39.295Z,102068.03
2023-01-05T11:40:43.873Z,102072.63
2023-01-05T11:41:45.814Z,102074.41
2023-01-05T11:42:47.753Z,102080.72
2023-01-05T11:43:50.992Z,102073.75
2023-01-05T11:45:16.698Z,102079.09
2023-01-05T11:46:18.918Z,102081.38
2023-01-05T11:47:23.592Z,102086.06
2023-01-05T11:48:29.125Z,102086.16
2023-01-05T11:49:31.088Z,102085.22
2023-01-05T11:50:54.820Z,102083.28
2023-01-05T11:51:56.664Z,102089.59
2023-01-05T11:53:01.129Z,102072.47
2023-01-05T11:54:03.460Z,102082.94
2023-01-05T11:55:20.576Z,102092.34
2023-01-05T11:56:24.432Z,102099.50
2023-01-05T11:57:27.094Z,102079.72
2023-01-05T11:58:45.612Z,102105.78
2023-01-05T11:59:47.819Z,102085.72
2023-01-05T12:01:14.032Z,102097.03
2023-01-05T12:02:39.599Z,102099.09
2023-01-05T12:03:59.089Z,102105.41
2023-01-05T12:05:22.623Z,102084.63
2023-01-05T12:06:31.241Z,102094.72
2023-01-05T12:07:47.025Z,102105.59
2023-01-05T12:09:09.900Z,102100.25
2023-01-05T12:10:42.228Z,102103.34
2023-01-05T12:12:05.543Z,102107.72
2023-01-05T12:13:22.352Z,102105.28
2023-01-05T12:14:50.348Z,102091.91
2023-01-05T12:16:13.800Z,102107.84
2023-01-05T12:17:20.435Z,102105.41
2023-01-05T12:18:31.550Z,102116.38
2023-01-05T12:19:36.386Z,102111.91
2023-01-05T12:20:45.598Z,102112.06
2023-01-05T12:22:29.464Z,102105.28
2023-01-05T12:24:00.631Z,102110.53
2023-01-05T12:25:02.511Z,102109.66
2023-01-05T12:26:23.387Z,102110.63
2023-01-05T12:27:34.985Z,102110.06
2023-01-05T12:29:21.366Z,102112.66
2023-01-05T12:34:59.664Z,102112.13
2023-01-05T12:36:31.383Z,102118.31
2023-01-05T12:38:02.142Z,102114.16
2023-01-05T12:39:06.739Z,102114.91
2023-01-05T12:40:16.914Z,102112.44
2023-01-05T12:42:06.785Z,102119.50
2023-01-05T12:43:11.018Z,102125.66
2023-01-05T12:44:34.048Z,102111.13
2023-01-05T12:45:57.532Z,102126.75
2023-01-05T12:47:26.595Z,102128.25
2023-01-05T12:48:35.468Z,102121.63
2023-01-05T12:49:47.296Z,102125.31
2023-01-05T12:50:59.198Z,102123.91